sensor_id;sensor_type;location;lat;lon;timestamp;pressure;altitude;pressure_sealevel;temperature;humidity
71915;BME280;60387;49.994;14.660;2022-08-03T00:00:42;97845.13;;;21.38;46.56
71915;BME280;60387;49.994;14.660;2022-08-03T00:03:18;97847.00;;;21.31;46.60
71915;BME280;60387;49.994;14.660;2022-08-03T00:05:54;97835.03;;;21.23;46.72
71915;BME280;60387;49.994;14.660;2022-08-03T00:08:31;97836.19;;;21.22;46.87
71915;BME280;60387;49.994;14.660;2022-08-03T00:11:08;97839.25;;;21.17;46.89
71915;BME280;60387;49.994;14.660;2022-08-03T00:13:44;97848.25;;;21.14;46.87
71915;BME280;60387;49.994;14.660;2022-08-03T00:16:20;97846.94;;;21.08;47.13
71915;BME280;60387;49.994;14.660;2022-08-03T00:18:57;97851.97;;;21.03;47.29
71915;BME280;60387;49.994;14.660;2022-08-03T00:21:34;97838.88;;;20.96;47.06
71915;BME280;60387;49.994;14.660;2022-08-03T00:24:10;97827.72;;;20.89;46.90
71915;BME280;60387;49.994;14.660;2022-08-03T00:26:47;97841.06;;;20.87;47.29
71915;BME280;60387;49.994;14.660;2022-08-03T00:29:22;97836.19;;;20.81;47.23
71915;BME280;60387;49.994;14.660;2022-08-03T00:31:59;97831.38;;;20.78;46.98
71915;BME280;60387;49.994;14.660;2022-08-03T00:34:35;97830.19;;;20.75;47.28
71915;BME280;60387;49.994;14.660;2022-08-03T00:37:12;97833.38;;;20.77;47.28
71915;BME280;60387;49.994;14.660;2022-08-03T00:39:49;97831.31;;;20.74;46.96
71915;BME280;60387;49.994;14.660;2022-08-03T00:42:25;97825.47;;;20.76;47.00
71915;BME280;60387;49.994;14.660;2022-08-03T00:45:01;97834.13;;;20.78;47.00
71915;BME280;60387;49.994;14.660;2022-08-03T00:47:38;97830.59;;;20.77;47.35
71915;BME280;60387;49.994;14.660;2022-08-03T00:50:16;97826.69;;;20.78;46.93
71915;BME280;60387;49.994;14.660;2022-08-03T00:52:55;97820.03;;;20.79;47.44
71915;BME280;60387;49.994;14.660;2022-08-03T00:55:32;97825.94;;;20.81;48.69
71915;BME280;60387;49.994;14.660;2022-08-03T00:58:09;97822.03;;;20.82;47.54
71915;BME280;60387;49.994;14.660;2022-08-03T01:00:45;97818.06;;;20.80;47.10
71915;BME280;60387;49.994;14.660;2022-08-03T01:03:22;97817.25;;;20.79;47.29
71915;BME280;60387;49.994;14.660;2022-08-03T01:06:17;97813.66;;;20.75;47.25
71915;BME280;60387;49.994;14.660;2022-08-03T01:09:18;97815.97;;;20.73;47.47
71915;BME280;60387;49.994;14.660;2022-08-03T01:12:28;97809.25;;;20.71;47.16
71915;BME280;60387;49.994;14.660;2022-08-03T01:20:48;97824.88;;;20.67;47.72
71915;BME280;60387;49.994;14.660;2022-08-03T01:35:31;97812.00;;;20.52;48.11
71915;BME280;60387;49.994;14.660;2022-08-03T01:38:17;97815.13;;;20.50;48.08
71915;BME280;60387;49.994;14.660;2022-08-03T01:40:57;97809.19;;;20.48;48.21
71915;BME280;60387;49.994;14.660;2022-08-03T01:43:41;97811.06;;;20.44;48.71
71915;BME280;60387;49.994;14.660;2022-08-03T01:46:20;97816.56;;;20.44;48.34
71915;BME280;60387;49.994;14.660;2022-08-03T01:48:58;97818.09;;;20.42;49.00
71915;BME280;60387;49.994;14.660;2022-08-03T01:51:42;97814.09;;;20.39;48.37
71915;BME280;60387;49.994;14.660;2022-08-03T01:54:21;97815.66;;;20.37;49.08
71915;BME280;60387;49.994;14.660;2022-08-03T01:56:59;97800.06;;;20.25;48.71
71915;BME280;60387;49.994;14.660;2022-08-03T01:59:38;97814.03;;;20.36;50.98
71915;BME280;60387;49.994;14.660;2022-08-03T02:02:17;97807.31;;;20.33;49.07
71915;BME280;60387;49.994;14.660;2022-08-03T02:04:56;97813.59;;;20.34;49.02
71915;BME280;60387;49.994;14.660;2022-08-03T02:07:34;97814.41;;;20.34;49.56
71915;BME280;60387;49.994;14.660;2022-08-03T02:10:14;97812.81;;;20.33;49.39
71915;BME280;60387;49.994;14.660;2022-08-03T02:12:52;97813.97;;;20.32;49.43
71915;BME280;60387;49.994;14.660;2022-08-03T02:15:31;97806.44;;;20.29;49.56
71915;BME280;60387;49.994;14.660;2022-08-03T02:18:09;97800.16;;;20.29;49.41
71915;BME280;60387;49.994;14.660;2022-08-03T02:20:47;97809.09;;;20.26;49.22
71915;BME280;60387;49.994;14.660;2022-08-03T02:23:24;97805.94;;;20.24;49.11
71915;BME280;60387;49.994;14.660;2022-08-03T02:26:03;97812.94;;;20.21;49.01
71915;BME280;60387;49.994;14.660;2022-08-03T02:28:42;97799.91;;;20.18;49.37
71915;BME280;60387;49.994;14.660;2022-08-03T02:31:23;97808.94;;;20.19;49.21
71915;BME280;60387;49.994;14.660;2022-08-03T02:34:05;97806.94;;;20.16;49.94
71915;BME280;60387;49.994;14.660;2022-08-03T02:36:45;97807.22;;;20.11;49.70
71915;BME280;60387;49.994;14.660;2022-08-03T02:39:25;97804.84;;;20.09;50.51
71915;BME280;60387;49.994;14.660;2022-08-03T02:42:03;97800.56;;;20.12;49.91
71915;BME280;60387;49.994;14.660;2022-08-03T02:44:41;97805.63;;;20.10;49.89
71915;BME280;60387;49.994;14.660;2022-08-03T02:47:21;97808.75;;;20.08;50.42
71915;BME280;60387;49.994;14.660;2022-08-03T02:49:58;97813.34;;;20.04;49.89
71915;BME280;60387;49.994;14.660;2022-08-03T02:52:36;97822.41;;;20.05;49.75
71915;BME280;60387;49.994;14.660;2022-08-03T02:55:15;97814.84;;;20.02;50.28
71915;BME280;60387;49.994;14.660;2022-08-03T02:57:55;97815.22;;;20.00;49.93
71915;BME280;60387;49.994;14.660;2022-08-03T03:00:34;97815.56;;;19.99;50.59
71915;BME280;60387;49.994;14.660;2022-08-03T03:03:11;97812.38;;;19.97;50.72
71915;BME280;60387;49.994;14.660;2022-08-03T03:05:48;97810.78;;;19.96;51.34
71915;BME280;60387;49.994;14.660;2022-08-03T03:08:26;97809.56;;;19.93;51.54
71915;BME280;60387;49.994;14.660;2022-08-03T03:11:02;97809.91;;;19.92;50.87
71915;BME280;60387;49.994;14.660;2022-08-03T03:13:40;97807.53;;;19.90;50.94
71915;BME280;60387;49.994;14.660;2022-08-03T03:16:17;97808.22;;;19.87;50.99
71915;BME280;60387;49.994;14.660;2022-08-03T03:18:54;97805.47;;;19.87;51.75
71915;BME280;60387;49.994;14.660;2022-08-03T03:21:31;97816.03;;;19.85;51.44
71915;BME280;60387;49.994;14.660;2022-08-03T03:24:10;97812.06;;;19.83;51.38
71915;BME280;60387;49.994;14.660;2022-08-03T03:26:47;97818.38;;;19.83;51.08
71915;BME280;60387;49.994;14.660;2022-08-03T03:29:24;97812.44;;;19.82;51.23
71915;BME280;60387;49.994;14.660;2022-08-03T03:32:01;97815.88;;;19.78;51.15
71915;BME280;60387;49.994;14.660;2022-08-03T03:34:37;97810.31;;;19.75;51.10
71915;BME280;60387;49.994;14.660;2022-08-03T03:37:14;97819.34;;;19.76;51.46
71915;BME280;60387;49.994;14.660;2022-08-03T03:39:53;97818.13;;;19.73;51.23
71915;BME280;60387;49.994;14.660;2022-08-03T03:42:30;97818.94;;;19.74;51.20
71915;BME280;60387;49.994;14.660;2022-08-03T03:45:08;97817.34;;;19.73;51.98
71915;BME280;60387;49.994;14.660;2022-08-03T03:47:45;97827.16;;;19.74;52.18
71915;BME280;60387;49.994;14.660;2022-08-03T03:50:22;97816.09;;;19.70;51.56
71915;BME280;60387;49.994;14.660;2022-08-03T03:53:00;97822.03;;;19.72;52.02
71915;BME280;60387;49.994;14.660;2022-08-03T03:55:37;97833.44;;;19.74;51.69
71915;BME280;60387;49.994;14.660;2022-08-03T03:58:13;97826.78;;;19.75;51.72
71915;BME280;60387;49.994;14.660;2022-08-03T04:00:49;97835.94;;;19.79;51.77
71915;BME280;60387;49.994;14.660;2022-08-03T04:03:25;97843.47;;;19.82;51.31
71915;BME280;60387;49.994;14.660;2022-08-03T04:06:02;97836.63;;;19.91;51.56
71915;BME280;60387;49.994;14.660;2022-08-03T04:08:39;97845.16;;;20.21;51.20
71915;BME280;60387;49.994;14.660;2022-08-03T04:11:26;97851.25;;;20.49;50.82
71915;BME280;60387;49.994;14.660;2022-08-03T04:14:19;97848.72;;;20.78;50.65
71915;BME280;60387;49.994;14.660;2022-08-03T04:17:00;97841.75;;;20.84;50.23
71915;BME280;60387;49.994;14.660;2022-08-03T04:19:42;97839.72;;;20.81;50.17
71915;BME280;60387;49.994;14.660;2022-08-03T04:22:23;97847.06;;;20.74;51.02
71915;BME280;60387;49.994;14.660;2022-08-03T04:25:06;97844.66;;;20.72;50.88
71915;BME280;60387;49.994;14.660;2022-08-03T04:27:41;97849.13;;;20.99;51.63
71915;BME280;60387;49.994;14.660;2022-08-03T04:30:15;97850.97;;;21.56;50.95
71915;BME280;60387;49.994;14.660;2022-08-03T04:32:49;97852.84;;;22.26;49.91
71915;BME280;60387;49.994;14.660;2022-08-03T04:35:24;97848.19;;;22.96;48.98
71915;BME280;60387;49.994;14.660;2022-08-03T04:38:05;97859.97;;;23.62;48.53
71915;BME280;60387;49.994;14.660;2022-08-03T04:40:40;97866.34;;;24.17;47.89
71915;BME280;60387;49.994;14.660;2022-08-03T04:43:15;97866.13;;;24.53;47.18
71915;BME280;60387;49.994;14.660;2022-08-03T04:45:51;97864.75;;;24.84;46.70
71915;BME280;60387;49.994;14.660;2022-08-03T04:48:25;97865.19;;;25.07;46.64
71915;BME280;60387;49.994;14.660;2022-08-03T04:50:58;97867.63;;;25.26;46.37
71915;BME280;60387;49.994;14.660;2022-08-03T04:53:32;97870.44;;;25.43;45.97
71915;BME280;60387;49.994;14.660;2022-08-03T04:56:06;97873.66;;;25.59;46.01
71915;BME280;60387;49.994;14.660;2022-08-03T04:58:39;97873.25;;;25.75;46.06
71915;BME280;60387;49.994;14.660;2022-08-03T05:01:12;97876.44;;;25.91;46.09
71915;BME280;60387;49.994;14.660;2022-08-03T05:03:46;97881.59;;;26.10;45.60
71915;BME280;60387;49.994;14.660;2022-08-03T05:06:19;97862.56;;;26.05;45.24
71915;BME280;60387;49.994;14.660;2022-08-03T05:08:53;97881.97;;;26.19;45.05
71915;BME280;60387;49.994;14.660;2022-08-03T05:11:26;97888.72;;;26.11;45.18
71915;BME280;60387;49.994;14.660;2022-08-03T05:13:59;97884.78;;;26.05;45.45
71915;BME280;60387;49.994;14.660;2022-08-03T05:16:33;97878.81;;;26.10;45.51
71915;BME280;60387;49.994;14.660;2022-08-03T05:19:06;97889.13;;;26.16;45.82
71915;BME280;60387;49.994;14.660;2022-08-03T05:21:39;97893.50;;;26.21;45.26
71915;BME280;60387;49.994;14.660;2022-08-03T05:24:12;97891.13;;;26.19;45.20
71915;BME280;60387;49.994;14.660;2022-08-03T05:26:46;97891.13;;;26.16;45.28
71915;BME280;60387;49.994;14.660;2022-08-03T05:29:19;97893.88;;;26.12;45.33
71915;BME280;60387;49.994;14.660;2022-08-03T05:31:52;97894.28;;;26.11;45.43
71915;BME280;60387;49.994;14.660;2022-08-03T05:34:25;97893.50;;;26.07;45.25
71915;BME280;60387;49.994;14.660;2022-08-03T05:36:59;97893.50;;;26.07;45.48
71915;BME280;60387;49.994;14.660;2022-08-03T05:39:33;97891.13;;;26.16;45.63
71915;BME280;60387;49.994;14.660;2022-08-03T05:42:06;97892.69;;;26.31;45.73
71915;BME280;60387;49.994;14.660;2022-08-03T05:44:39;97896.22;;;26.49;45.53
71915;BME280;60387;49.994;14.660;2022-08-03T05:47:12;97898.56;;;26.68;45.66
71915;BME280;60387;49.994;14.660;2022-08-03T05:49:46;97901.28;;;26.89;44.69
71915;BME280;60387;49.994;14.660;2022-08-03T05:52:19;97892.50;;;26.97;44.53
71915;BME280;60387;49.994;14.660;2022-08-03T05:54:52;97894.88;;;27.06;44.83
71915;BME280;60387;49.994;14.660;2022-08-03T05:57:25;97900.34;;;27.23;44.35
71915;BME280;60387;49.994;14.660;2022-08-03T05:59:59;97903.84;;;27.34;44.42
71915;BME280;60387;49.994;14.660;2022-08-03T06:02:33;97894.69;;;27.44;44.56
71915;BME280;60387;49.994;14.660;2022-08-03T06:05:07;97907.63;;;27.68;44.51
71915;BME280;60387;49.994;14.660;2022-08-03T06:07:41;97905.81;;;27.98;43.89
71915;BME280;60387;49.994;14.660;2022-08-03T06:10:14;97906.53;;;28.13;43.75
71915;BME280;60387;49.994;14.660;2022-08-03T06:12:47;97897.28;;;28.19;43.15
71915;BME280;60387;49.994;14.660;2022-08-03T06:15:20;97894.03;;;28.24;43.57
71915;BME280;60387;49.994;14.660;2022-08-03T06:17:54;97905.06;;;28.42;42.83
71915;BME280;60387;49.994;14.660;2022-08-03T06:20:27;97902.25;;;28.45;42.15
71915;BME280;60387;49.994;14.660;2022-08-03T06:23:00;97903.81;;;28.46;42.66
71915;BME280;60387;49.994;14.660;2022-08-03T06:25:33;97908.13;;;28.54;43.17
71915;BME280;60387;49.994;14.660;2022-08-03T06:28:07;97909.50;;;28.76;43.39
71915;BME280;60387;49.994;14.660;2022-08-03T06:30:40;97898.78;;;29.05;42.81
71915;BME280;60387;49.994;14.660;2022-08-03T06:33:13;97906.41;;;29.31;42.23
71915;BME280;60387;49.994;14.660;2022-08-03T06:35:47;97908.97;;;29.48;42.53
71915;BME280;60387;49.994;14.660;2022-08-03T06:38:20;97912.28;;;29.70;41.89
71915;BME280;60387;49.994;14.660;2022-08-03T06:40:53;97914.41;;;29.85;41.61
71915;BME280;60387;49.994;14.660;2022-08-03T06:43:27;97912.53;;;30.05;41.47
71915;BME280;60387;49.994;14.660;2022-08-03T06:46:00;97915.34;;;30.28;40.93
71915;BME280;60387;49.994;14.660;2022-08-03T06:48:33;97923.34;;;30.49;41.46
71915;BME280;60387;49.994;14.660;2022-08-03T06:51:07;97916.91;;;30.75;40.87
71915;BME280;60387;49.994;14.660;2022-08-03T06:53:40;97913.97;;;31.02;40.81
71915;BME280;60387;49.994;14.660;2022-08-03T06:56:13;97923.59;;;31.20;39.16
71915;BME280;60387;49.994;14.660;2022-08-03T06:58:47;97924.03;;;31.38;39.57
71915;BME280;60387;49.994;14.660;2022-08-03T07:01:20;97929.88;;;31.63;39.15
71915;BME280;60387;49.994;14.660;2022-08-03T07:03:53;97933.25;;;31.90;39.11
71915;BME280;60387;49.994;14.660;2022-08-03T07:06:27;97922.63;;;32.17;38.86
71915;BME280;60387;49.994;14.660;2022-08-03T07:09:00;97930.31;;;32.45;38.85
71915;BME280;60387;49.994;14.660;2022-08-03T07:11:33;97925.28;;;32.68;36.97
71915;BME280;60387;49.994;14.660;2022-08-03T07:14:06;97935.38;;;32.82;36.90
71915;BME280;60387;49.994;14.660;2022-08-03T07:16:40;97933.50;;;32.91;37.74
71915;BME280;60387;49.994;14.660;2022-08-03T07:19:13;97929.50;;;33.05;37.75
71915;BME280;60387;49.994;14.660;2022-08-03T07:21:46;97939.97;;;33.17;37.93
71915;BME280;60387;49.994;14.660;2022-08-03T07:24:19;97925.00;;;33.36;37.10
71915;BME280;60387;49.994;14.660;2022-08-03T07:26:53;97939.00;;;33.64;36.18
71915;BME280;60387;49.994;14.660;2022-08-03T07:29:26;97939.50;;;33.88;36.69
71915;BME280;60387;49.994;14.660;2022-08-03T07:31:59;97929.47;;;34.12;36.96
71915;BME280;60387;49.994;14.660;2022-08-03T07:34:33;97939.63;;;34.34;35.45
71915;BME280;60387;49.994;14.660;2022-08-03T07:37:06;97933.38;;;34.52;35.96
71915;BME280;60387;49.994;14.660;2022-08-03T07:39:39;97936.28;;;34.61;34.55
71915;BME280;60387;49.994;14.660;2022-08-03T07:42:13;97935.22;;;34.67;34.45
71915;BME280;60387;49.994;14.660;2022-08-03T07:44:46;97937.38;;;34.76;35.47
71915;BME280;60387;49.994;14.660;2022-08-03T07:47:22;97934.09;;;34.90;34.80
71915;BME280;60387;49.994;14.660;2022-08-03T07:49:56;97941.34;;;35.00;34.53
71915;BME280;60387;49.994;14.660;2022-08-03T07:52:30;97943.41;;;35.21;35.04
71915;BME280;60387;49.994;14.660;2022-08-03T07:55:07;97934.44;;;35.34;32.64
71915;BME280;60387;49.994;14.660;2022-08-03T07:57:40;97946.09;;;35.45;33.56
71915;BME280;60387;49.994;14.660;2022-08-03T08:00:16;97922.47;;;35.52;32.84
71915;BME280;60387;49.994;14.660;2022-08-03T08:02:50;97931.91;;;35.79;33.33
71915;BME280;60387;49.994;14.660;2022-08-03T08:05:24;97932.91;;;35.94;33.25
71915;BME280;60387;49.994;14.660;2022-08-03T08:07:57;97933.13;;;36.09;31.86
71915;BME280;60387;49.994;14.660;2022-08-03T08:10:31;97934.88;;;36.15;32.10
71915;BME280;60387;49.994;14.660;2022-08-03T08:13:04;97928.50;;;36.24;31.01
71915;BME280;60387;49.994;14.660;2022-08-03T08:15:37;97934.91;;;36.24;30.78
71915;BME280;60387;49.994;14.660;2022-08-03T08:18:10;97932.13;;;36.33;31.68
71915;BME280;60387;49.994;14.660;2022-08-03T08:20:44;97927.63;;;36.54;31.02
71915;BME280;60387;49.994;14.660;2022-08-03T08:23:17;97923.13;;;36.74;30.07
71915;BME280;60387;49.994;14.660;2022-08-03T08:25:51;97925.03;;;36.95;30.59
71915;BME280;60387;49.994;14.660;2022-08-03T08:28:25;97935.25;;;37.11;28.44
71915;BME280;60387;49.994;14.660;2022-08-03T08:30:59;97930.19;;;37.15;30.38
71915;BME280;60387;49.994;14.660;2022-08-03T08:33:33;97932.72;;;37.22;29.63
71915;BME280;60387;49.994;14.660;2022-08-03T08:36:06;97934.47;;;37.28;30.44
71915;BME280;60387;49.994;14.660;2022-08-03T08:38:39;97923.44;;;37.39;27.93
71915;BME280;60387;49.994;14.660;2022-08-03T08:41:14;97927.53;;;37.38;27.95
71915;BME280;60387;49.994;14.660;2022-08-03T08:43:47;97932.84;;;37.45;29.21
71915;BME280;60387;49.994;14.660;2022-08-03T08:46:21;97931.44;;;37.59;29.76
71915;BME280;60387;49.994;14.660;2022-08-03T08:48:54;97931.72;;;37.70;28.55
71915;BME280;60387;49.994;14.660;2022-08-03T08:51:32;97928.03;;;37.87;28.62
71915;BME280;60387;49.994;14.660;2022-08-03T08:54:06;97922.50;;;38.02;27.81
71915;BME280;60387;49.994;14.660;2022-08-03T08:56:40;97926.34;;;38.13;26.53
71915;BME280;60387;49.994;14.660;2022-08-03T08:59:15;97925.13;;;38.14;26.07
71915;BME280;60387;49.994;14.660;2022-08-03T09:01:49;97924.03;;;38.12;25.94
71915;BME280;60387;49.994;14.660;2022-08-03T09:04:22;97912.53;;;38.15;26.39
71915;BME280;60387;49.994;14.660;2022-08-03T09:06:55;97921.88;;;38.30;26.10
71915;BME280;60387;49.994;14.660;2022-08-03T09:09:29;97926.22;;;38.49;26.03
71915;BME280;60387;49.994;14.660;2022-08-03T09:12:03;97920.19;;;38.56;24.97
71915;BME280;60387;49.994;14.660;2022-08-03T09:14:36;97916.09;;;38.57;26.18
71915;BME280;60387;49.994;14.660;2022-08-03T09:17:09;97925.47;;;38.63;25.47
71915;BME280;60387;49.994;14.660;2022-08-03T09:19:43;97914.47;;;38.65;24.32
71915;BME280;60387;49.994;14.660;2022-08-03T09:22:35;97914.19;;;38.54;24.91
71915;BME280;60387;49.994;14.660;2022-08-03T09:25:33;97922.53;;;38.58;24.92
71915;BME280;60387;49.994;14.660;2022-08-03T09:28:09;97915.69;;;38.64;23.55
71915;BME280;60387;49.994;14.660;2022-08-03T09:30:44;97913.00;;;38.70;24.87
71915;BME280;60387;49.994;14.660;2022-08-03T09:33:24;97918.47;;;38.82;24.35
71915;BME280;60387;49.994;14.660;2022-08-03T09:35:57;97910.16;;;38.93;24.28
71915;BME280;60387;49.994;14.660;2022-08-03T09:38:31;97920.72;;;39.07;24.98
71915;BME280;60387;49.994;14.660;2022-08-03T09:41:16;97918.25;;;39.24;24.06
71915;BME280;60387;49.994;14.660;2022-08-03T09:43:49;97918.09;;;39.42;24.82
71915;BME280;60387;49.994;14.660;2022-08-03T09:46:23;97907.44;;;39.51;23.74
71915;BME280;60387;49.994;14.660;2022-08-03T09:49:11;97918.59;;;39.69;24.22
71915;BME280;60387;49.994;14.660;2022-08-03T09:51:45;97914.59;;;39.75;23.69
71915;BME280;60387;49.994;14.660;2022-08-03T09:54:26;97906.16;;;39.81;22.96
71915;BME280;60387;49.994;14.660;2022-08-03T09:56:59;97913.47;;;39.87;23.54
71915;BME280;60387;49.994;14.660;2022-08-03T09:59:33;97908.47;;;39.97;23.44
71915;BME280;60387;49.994;14.660;2022-08-03T10:02:20;97909.16;;;39.92;23.48
71915;BME280;60387;49.994;14.660;2022-08-03T10:04:53;97904.03;;;39.76;23.46
71915;BME280;60387;49.994;14.660;2022-08-03T10:07:27;97902.53;;;39.66;24.35
71915;BME280;60387;49.994;14.660;2022-08-03T10:10:01;97896.94;;;39.57;22.90
71915;BME280;60387;49.994;14.660;2022-08-03T10:12:35;97903.22;;;39.47;23.39
71915;BME280;60387;49.994;14.660;2022-08-03T10:15:10;97901.44;;;39.49;23.13
71915;BME280;60387;49.994;14.660;2022-08-03T10:17:43;97900.09;;;39.59;24.05
71915;BME280;60387;49.994;14.660;2022-08-03T10:20:16;97904.78;;;39.62;23.18
71915;BME280;60387;49.994;14.660;2022-08-03T10:22:50;97889.31;;;39.63;23.61
71915;BME280;60387;49.994;14.660;2022-08-03T10:25:24;97898.34;;;39.76;24.21
71915;BME280;60387;49.994;14.660;2022-08-03T10:28:02;97886.47;;;39.92;23.23
71915;BME280;60387;49.994;14.660;2022-08-03T10:30:40;97894.16;;;40.06;22.84
71915;BME280;60387;49.994;14.660;2022-08-03T10:33:18;97891.22;;;40.15;22.71
71915;BME280;60387;49.994;14.660;2022-08-03T10:35:55;97892.25;;;40.32;23.14
71915;BME280;60387;49.994;14.660;2022-08-03T10:38:53;97890.84;;;40.42;22.22
71915;BME280;60387;49.994;14.660;2022-08-03T10:41:31;97886.56;;;40.32;22.33
71915;BME280;60387;49.994;14.660;2022-08-03T10:44:13;97887.78;;;40.25;22.40
71915;BME280;60387;49.994;14.660;2022-08-03T10:46:50;97875.63;;;40.25;21.25
71915;BME280;60387;49.994;14.660;2022-08-03T10:49:23;97882.06;;;40.05;21.22
71915;BME280;60387;49.994;14.660;2022-08-03T10:51:57;97874.06;;;39.75;22.10
71915;BME280;60387;49.994;14.660;2022-08-03T11:00:47;97876.19;;;38.46;23.15
71915;BME280;60387;49.994;14.660;2022-08-03T11:03:21;97863.31;;;38.36;23.36
71915;BME280;60387;49.994;14.660;2022-08-03T11:06:17;97868.22;;;38.59;23.03
71915;BME280;60387;49.994;14.660;2022-08-03T11:11:44;97857.13;;;38.70;23.38
71915;BME280;60387;49.994;14.660;2022-08-03T11:14:19;97861.28;;;38.84;22.29
71915;BME280;60387;49.994;14.660;2022-08-03T11:17:06;97859.56;;;39.01;23.00
71915;BME280;60387;49.994;14.660;2022-08-03T11:19:51;97861.25;;;39.22;22.01
71915;BME280;60387;49.994;14.660;2022-08-03T11:22:25;97869.28;;;39.38;21.79
71915;BME280;60387;49.994;14.660;2022-08-03T11:25:18;97855.31;;;39.48;22.12
71915;BME280;60387;49.994;14.660;2022-08-03T11:28:26;97867.81;;;39.71;20.99
71915;BME280;60387;49.994;14.660;2022-08-03T11:34:07;97859.59;;;39.58;21.41
71915;BME280;60387;49.994;14.660;2022-08-03T11:37:19;97863.91;;;39.54;22.36
71915;BME280;60387;49.994;14.660;2022-08-03T11:39:53;97852.06;;;39.70;22.20
71915;BME280;60387;49.994;14.660;2022-08-03T11:45:00;97853.34;;;40.03;21.36
71915;BME280;60387;49.994;14.660;2022-08-03T11:47:36;97850.41;;;40.12;20.87
71915;BME280;60387;49.994;14.660;2022-08-03T11:50:09;97850.00;;;40.19;19.57
71915;BME280;60387;49.994;14.660;2022-08-03T11:52:42;97851.72;;;40.31;19.80
71915;BME280;60387;49.994;14.660;2022-08-03T11:55:17;97846.69;;;40.41;20.60
71915;BME280;60387;49.994;14.660;2022-08-03T11:57:51;97852.81;;;40.54;20.07
71915;BME280;60387;49.994;14.660;2022-08-03T12:00:31;97843.09;;;40.60;20.77
71915;BME280;60387;49.994;14.660;2022-08-03T12:03:12;97842.44;;;40.51;20.53
71915;BME280;60387;49.994;14.660;2022-08-03T12:05:51;97844.34;;;40.39;19.97
71915;BME280;60387;49.994;14.660;2022-08-03T12:11:03;97832.34;;;40.10;20.72
71915;BME280;60387;49.994;14.660;2022-08-03T12:13:40;97839.50;;;39.91;21.19
71915;BME280;60387;49.994;14.660;2022-08-03T12:16:22;97835.09;;;39.90;20.75
71915;BME280;60387;49.994;14.660;2022-08-03T12:19:00;97824.69;;;40.01;21.08
71915;BME280;60387;49.994;14.660;2022-08-03T12:21:34;97816.34;;;40.12;21.12
71915;BME280;60387;49.994;14.660;2022-08-03T12:24:17;97824.19;;;40.03;20.08
71915;BME280;60387;49.994;14.660;2022-08-03T12:26:50;97820.94;;;39.75;20.69
71915;BME280;60387;49.994;14.660;2022-08-03T12:29:24;97818.50;;;39.54;21.08
71915;BME280;60387;49.994;14.660;2022-08-03T12:31:57;97811.97;;;39.48;20.18
71915;BME280;60387;49.994;14.660;2022-08-03T12:34:46;97810.81;;;39.54;20.16
71915;BME280;60387;49.994;14.660;2022-08-03T12:37:21;97814.00;;;39.62;20.11
71915;BME280;60387;49.994;14.660;2022-08-03T12:39:57;97817.13;;;39.64;19.83
71915;BME280;60387;49.994;14.660;2022-08-03T12:42:37;97811.38;;;39.58;19.90
71915;BME280;60387;49.994;14.660;2022-08-03T12:47:57;97815.97;;;39.56;20.71
71915;BME280;60387;49.994;14.660;2022-08-03T12:50:31;97811.47;;;39.49;20.71
71915;BME280;60387;49.994;14.660;2022-08-03T12:53:06;97798.19;;;39.41;20.70
71915;BME280;60387;49.994;14.660;2022-08-03T12:55:40;97798.19;;;39.41;20.76
71915;BME280;60387;49.994;14.660;2022-08-03T12:58:29;97790.19;;;39.40;21.40
71915;BME280;60387;49.994;14.660;2022-08-03T13:01:03;97788.72;;;39.44;21.36
71915;BME280;60387;49.994;14.660;2022-08-03T13:03:41;97793.88;;;39.60;20.76
71915;BME280;60387;49.994;14.660;2022-08-03T13:06:17;97789.44;;;39.73;19.66
71915;BME280;60387;49.994;14.660;2022-08-03T13:09:02;97796.88;;;39.71;19.78
71915;BME280;60387;49.994;14.660;2022-08-03T13:11:35;97789.38;;;39.68;20.55
71915;BME280;60387;49.994;14.660;2022-08-03T13:14:08;97795.22;;;39.64;19.76
71915;BME280;60387;49.994;14.660;2022-08-03T13:16:42;97795.25;;;39.50;20.17
71915;BME280;60387;49.994;14.660;2022-08-03T13:19:15;97794.09;;;39.42;20.38
71915;BME280;60387;49.994;14.660;2022-08-03T13:21:48;97794.28;;;39.39;20.26
71915;BME280;60387;49.994;14.660;2022-08-03T13:24:21;97794.69;;;39.32;19.62
71915;BME280;60387;49.994;14.660;2022-08-03T13:26:55;97787.44;;;39.16;19.94
71915;BME280;60387;49.994;14.660;2022-08-03T13:29:28;97800.63;;;39.05;20.56
71915;BME280;60387;49.994;14.660;2022-08-03T13:32:03;97787.41;;;39.02;19.28
71915;BME280;60387;49.994;14.660;2022-08-03T13:34:36;97784.50;;;38.96;19.53
71915;BME280;60387;49.994;14.660;2022-08-03T13:37:10;97787.31;;;38.96;19.95
71915;BME280;60387;49.994;14.660;2022-08-03T13:39:43;97781.38;;;38.94;20.16
71915;BME280;60387;49.994;14.660;2022-08-03T13:42:17;97780.19;;;39.01;19.66
71915;BME280;60387;49.994;14.660;2022-08-03T13:44:50;97777.47;;;38.92;20.49
71915;BME280;60387;49.994;14.660;2022-08-03T13:47:23;97771.22;;;38.88;19.98
71915;BME280;60387;49.994;14.660;2022-08-03T13:49:57;97769.41;;;38.76;19.69
71915;BME280;60387;49.994;14.660;2022-08-03T13:52:34;97776.25;;;38.69;20.99
71915;BME280;60387;49.994;14.660;2022-08-03T13:55:07;97768.41;;;38.64;20.57
71915;BME280;60387;49.994;14.660;2022-08-03T13:57:44;97780.16;;;38.72;20.96
71915;BME280;60387;49.994;14.660;2022-08-03T14:00:18;97767.06;;;38.74;20.27
71915;BME280;60387;49.994;14.660;2022-08-03T14:02:51;97762.16;;;38.60;19.97
71915;BME280;60387;49.994;14.660;2022-08-03T14:05:25;97759.78;;;38.44;20.11
71915;BME280;60387;49.994;14.660;2022-08-03T14:07:59;97754.31;;;38.41;20.74
71915;BME280;60387;49.994;14.660;2022-08-03T14:10:34;97750.53;;;38.44;20.03
71915;BME280;60387;49.994;14.660;2022-08-03T14:13:09;97745.34;;;38.42;20.84
71915;BME280;60387;49.994;14.660;2022-08-03T14:15:43;97752.28;;;38.41;21.21